createdAt,value
2023-01-28T00:01:45.809Z,-2.46
2023-01-28T00:04:12.449Z,-2.44
2023-01-28T00:06:39.189Z,-2.49
2023-01-28T00:09:05.771Z,-2.52
2023-01-28T00:11:32.386Z,-2.52
2023-01-28T00:13:59.413Z,-2.51
2023-01-28T00:16:27.409Z,-2.52
2023-01-28T00:18:54.858Z,-2.54
2023-01-28T00:21:21.507Z,-2.58
2023-01-28T00:23:52.298Z,-2.54
2023-01-28T00:26:19.015Z,-2.60
2023-01-28T00:28:45.993Z,-2.46
2023-01-28T00:31:17.164Z,-2.49
2023-01-28T00:33:48.595Z,-2.53
2023-01-28T00:36:16.123Z,-2.55
2023-01-28T00:38:43.048Z,-2.51
2023-01-28T00:41:17.685Z,-2.47
2023-01-28T00:43:45.319Z,-2.52
2023-01-28T00:46:13.948Z,-2.55
2023-01-28T00:48:42.041Z,-2.57
2023-01-28T00:51:09.692Z,-2.59
2023-01-28T00:53:37.341Z,-2.56
2023-01-28T00:56:05.747Z,-2.59
2023-01-28T00:58:33.204Z,-2.57
2023-01-28T01:01:20.057Z,-2.52
2023-01-28T01:03:47.029Z,-2.52
2023-01-28T01:06:15.431Z,-2.53
2023-01-28T01:08:43.033Z,-2.61
2023-01-28T01:11:12.222Z,-2.58
2023-01-28T01:13:39.157Z,-2.62
2023-01-28T01:16:08.920Z,-2.67
2023-01-28T01:18:36.237Z,-2.65
2023-01-28T01:21:03.497Z,-2.65
2023-01-28T01:23:31.403Z,-2.71
2023-01-28T01:25:58.950Z,-2.69
2023-01-28T01:28:25.501Z,-2.74
2023-01-28T01:31:04.077Z,-2.68
2023-01-28T01:33:30.841Z,-2.72
2023-01-28T01:35:59.123Z,-2.75
2023-01-28T01:38:27.640Z,-2.70
2023-01-28T01:41:00.914Z,-2.70
2023-01-28T01:44:00.036Z,-2.69
2023-01-28T01:46:38.080Z,-2.72
2023-01-28T01:49:19.925Z,-2.71
2023-01-28T01:51:51.307Z,-2.68
2023-01-28T01:54:20.839Z,-2.65
2023-01-28T01:56:50.247Z,-2.72
2023-01-28T01:59:24.063Z,-2.66
2023-01-28T02:01:51.157Z,-2.68
2023-01-28T02:04:28.826Z,-2.60
2023-01-28T02:06:56.832Z,-2.53
2023-01-28T02:09:32.330Z,-2.58
2023-01-28T02:12:17.172Z,-2.52
2023-01-28T02:14:57.188Z,-2.51
2023-01-28T02:17:25.118Z,-2.55
2023-01-28T02:19:57.409Z,-2.61
2023-01-28T02:22:36.082Z,-2.59
2023-01-28T02:25:26.867Z,-2.62
2023-01-28T02:28:18.839Z,-2.65
2023-01-28T02:31:20.843Z,-2.64
2023-01-28T02:34:00.095Z,-2.57
2023-01-28T02:36:39.576Z,-2.54
2023-01-28T02:39:12.349Z,-2.59
2023-01-28T02:42:13.691Z,-2.58
2023-01-28T02:44:40.503Z,-2.54
2023-01-28T02:47:33.380Z,-2.56
2023-01-28T02:50:06.071Z,-2.54
2023-01-28T02:53:03.570Z,-2.56
2023-01-28T02:55:38.406Z,-2.58
2023-01-28T02:58:22.869Z,-2.58
2023-01-28T03:01:02.147Z,-2.57
2023-01-28T03:03:33.404Z,-2.56
2023-01-28T03:06:07.028Z,-2.58
2023-01-28T03:08:57.827Z,-2.60
2023-01-28T03:11:44.597Z,-2.55
2023-01-28T03:14:30.344Z,-2.57
2023-01-28T03:17:19.721Z,-2.56
2023-01-28T03:20:05.376Z,-2.59
2023-01-28T03:22:57.085Z,-2.61
2023-01-28T03:25:45.805Z,-2.61
2023-01-28T03:28:37.536Z,-2.63
2023-01-28T03:31:33.081Z,-2.51
2023-01-28T03:34:21.489Z,-2.54
2023-01-28T03:36:58.373Z,-2.60
2023-01-28T03:39:37.798Z,-2.65
2023-01-28T03:42:14.788Z,-2.63
2023-01-28T03:45:01.722Z,-2.65
2023-01-28T03:47:30.749Z,-2.68
2023-01-28T03:49:59.865Z,-2.65
2023-01-28T03:52:31.952Z,-2.55
2023-01-28T03:55:14.455Z,-2.47
2023-01-28T03:57:41.987Z,-2.56
2023-01-28T04:00:10.927Z,-2.61
2023-01-28T04:02:43.251Z,-2.64
2023-01-28T04:05:15.933Z,-2.70
2023-01-28T04:07:46.779Z,-2.71
2023-01-28T04:10:18.803Z,-2.69
2023-01-28T04:12:54.344Z,-2.61
2023-01-28T04:15:21.067Z,-2.61
2023-01-28T04:17:49.304Z,-2.65
2023-01-28T04:20:23.948Z,-2.71
2023-01-28T04:22:50.569Z,-2.66
2023-01-28T04:25:18.909Z,-2.64
2023-01-28T04:27:45.709Z,-2.71
2023-01-28T04:30:24.783Z,-2.69
2023-01-28T04:33:06.329Z,-2.63
2023-01-28T04:35:52.082Z,-2.69
2023-01-28T04:38:32.570Z,-2.66
2023-01-28T04:41:19.482Z,-2.64
2023-01-28T04:43:46.796Z,-2.68
2023-01-28T04:46:32.185Z,-2.68
2023-01-28T04:49:04.288Z,-2.66
2023-01-28T04:51:49.546Z,-2.72
2023-01-28T04:54:19.061Z,-2.72
2023-01-28T04:56:45.822Z,-2.74
2023-01-28T04:59:12.416Z,-2.75
2023-01-28T05:01:39.170Z,-2.76
2023-01-28T05:04:06.634Z,-2.74
2023-01-28T05:06:36.826Z,-2.70
2023-01-28T05:09:10.170Z,-2.71
2023-01-28T05:11:39.053Z,-2.68
2023-01-28T05:14:06.312Z,-2.72
2023-01-28T05:16:43.253Z,-2.74
2023-01-28T05:19:10.939Z,-2.74
2023-01-28T05:21:41.098Z,-2.70
2023-01-28T05:24:17.672Z,-2.64
2023-01-28T05:26:44.757Z,-2.67
2023-01-28T05:29:11.638Z,-2.70
2023-01-28T05:31:39.065Z,-2.71
2023-01-28T05:34:05.618Z,-2.71
2023-01-28T05:36:32.198Z,-2.70
2023-01-28T05:39:02.042Z,-2.73
2023-01-28T05:41:28.850Z,-2.75
2023-01-28T05:43:59.907Z,-2.75
2023-01-28T05:46:33.617Z,-2.76
2023-01-28T05:49:13.366Z,-2.75
2023-01-28T05:52:09.229Z,-2.76
2023-01-28T05:54:35.952Z,-2.78
2023-01-28T05:57:02.559Z,-2.77
2023-01-28T05:59:29.517Z,-2.74
2023-01-28T06:01:57.862Z,-2.72
2023-01-28T06:04:24.510Z,-2.71
2023-01-28T06:06:52.200Z,-2.75
2023-01-28T06:09:18.975Z,-2.74
2023-01-28T06:11:46.303Z,-2.80
2023-01-28T06:14:13.941Z,-2.75
2023-01-28T06:17:03.641Z,-2.81
2023-01-28T06:19:44.227Z,-2.72
2023-01-28T06:22:11.186Z,-2.78
2023-01-28T06:24:37.816Z,-2.78
2023-01-28T06:27:05.526Z,-2.76
2023-01-28T06:29:32.154Z,-2.73
2023-01-28T06:31:58.938Z,-2.72
2023-01-28T06:34:26.955Z,-2.77
2023-01-28T06:36:54.127Z,-2.79
2023-01-28T06:39:22.248Z,-2.83
2023-01-28T06:41:49.833Z,-2.82
2023-01-28T06:44:16.676Z,-2.87
2023-01-28T06:46:43.308Z,-2.87
2023-01-28T06:49:11.440Z,-2.83
2023-01-28T06:51:37.957Z,-2.76
2023-01-28T06:54:04.804Z,-2.75
2023-01-28T06:56:31.389Z,-2.76
2023-01-28T06:58:58.062Z,-2.81
2023-01-28T07:01:24.847Z,-2.81
2023-01-28T07:03:54.237Z,-2.80
2023-01-28T07:06:20.779Z,-2.73
2023-01-28T07:08:47.561Z,-2.71
2023-01-28T07:11:14.188Z,-2.76
2023-01-28T07:13:40.922Z,-2.75
2023-01-28T07:16:08.037Z,-2.73
2023-01-28T07:18:35.050Z,-2.75
2023-01-28T07:21:01.869Z,-2.70
2023-01-28T07:23:29.251Z,-2.72
2023-01-28T07:25:55.850Z,-2.62
2023-01-28T07:28:22.478Z,-2.59
2023-01-28T07:30:53.277Z,-2.55
2023-01-28T07:33:20.548Z,-2.44
2023-01-28T07:35:49.926Z,-2.39
2023-01-28T07:38:16.532Z,-2.40
2023-01-28T07:40:43.099Z,-2.35
2023-01-28T07:43:10.411Z,-2.31
2023-01-28T07:45:38.975Z,-2.37
2023-01-28T07:48:08.280Z,-2.33
2023-01-28T07:50:36.883Z,-2.26
2023-01-28T07:53:09.319Z,-2.30
2023-01-28T07:55:36.270Z,-2.29
2023-01-28T07:58:04.986Z,-2.26
2023-01-28T08:00:34.975Z,-2.23
2023-01-28T08:03:06.009Z,-2.21
2023-01-28T08:05:50.032Z,-2.23
2023-01-28T08:08:17.506Z,-2.25
2023-01-28T08:10:44.407Z,-2.26
2023-01-28T08:13:12.761Z,-2.22
2023-01-28T08:15:39.809Z,-2.20
2023-01-28T08:18:13.177Z,-2.13
2023-01-28T08:20:40.950Z,-2.22
2023-01-28T08:23:11.314Z,-2.18
2023-01-28T08:25:38.054Z,-2.21
2023-01-28T08:28:05.480Z,-2.26
2023-01-28T08:30:32.435Z,-2.24
2023-01-28T08:33:00.097Z,-2.21
2023-01-28T08:35:27.795Z,-2.27
2023-01-28T08:37:54.969Z,-2.23
2023-01-28T08:40:22.147Z,-2.14
2023-01-28T08:42:50.283Z,-2.05
2023-01-28T08:45:17.736Z,-2.25
2023-01-28T08:47:52.733Z,-2.19
2023-01-28T08:50:21.206Z,-2.11
2023-01-28T08:52:56.691Z,-2.10
2023-01-28T08:55:23.707Z,-1.90
2023-01-28T08:57:50.276Z,-1.89
2023-01-28T09:00:17.481Z,-1.81
2023-01-28T09:02:44.532Z,-1.90
2023-01-28T09:05:11.584Z,-1.91
2023-01-28T09:07:39.117Z,-1.83
2023-01-28T09:10:09.246Z,-1.81
2023-01-28T09:12:36.589Z,-1.70
2023-01-28T09:15:03.799Z,-1.73
2023-01-28T09:17:30.389Z,-1.63
2023-01-28T09:19:56.988Z,-1.63
2023-01-28T09:22:23.656Z,-1.58
2023-01-28T09:24:50.203Z,-1.57
2023-01-28T09:27:16.897Z,-1.61
2023-01-28T09:29:43.580Z,-1.66
2023-01-28T09:32:10.208Z,-1.66
2023-01-28T09:34:37.651Z,-1.57
2023-01-28T09:37:04.214Z,-1.49
2023-01-28T09:39:31.078Z,-1.34
2023-01-28T09:42:25.033Z,-1.31
2023-01-28T09:45:06.898Z,-1.31
2023-01-28T09:47:56.333Z,-1.21
2023-01-28T09:50:43.861Z,-1.17
2023-01-28T09:53:20.582Z,-1.01
2023-01-28T09:55:50.568Z,-0.82
2023-01-28T09:58:18.476Z,-1.00
2023-01-28T10:00:59.100Z,-1.07
2023-01-28T10:04:13.131Z,-1.15
2023-01-28T10:06:54.852Z,-1.04
2023-01-28T10:09:21.463Z,-0.79
2023-01-28T10:12:25.094Z,-0.68
2023-01-28T10:14:54.650Z,-0.58
2023-01-28T10:17:31.686Z,-0.60
2023-01-28T10:20:16.080Z,-0.39
2023-01-28T10:22:52.900Z,-0.06
2023-01-28T10:25:22.183Z,-0.04
2023-01-28T10:27:50.569Z,-0.11
2023-01-28T10:30:25.641Z,-0.19
2023-01-28T10:33:27.585Z,-0.05
2023-01-28T10:35:56.219Z,0.13
2023-01-28T10:38:25.880Z,0.25
2023-01-28T10:40:52.982Z,0.24
2023-01-28T10:43:23.888Z,0.33
2023-01-28T10:46:03.164Z,0.28
2023-01-28T10:48:35.157Z,0.33
2023-01-28T10:51:05.639Z,0.55
2023-01-28T10:53:35.709Z,0.87
2023-01-28T10:56:03.647Z,0.84
2023-01-28T10:58:37.118Z,0.82
2023-01-28T11:01:07.243Z,1.03
2023-01-28T11:03:37.172Z,0.75
2023-01-28T11:06:04.060Z,1.04
2023-01-28T11:08:31.496Z,1.23
2023-01-28T11:10:58.758Z,1.32
2023-01-28T11:13:26.666Z,1.50
2023-01-28T11:16:00.765Z,1.43
2023-01-28T11:18:47.487Z,1.56
2023-01-28T11:21:21.810Z,1.56
2023-01-28T11:23:59.084Z,1.53
2023-01-28T11:26:38.372Z,1.59
2023-01-28T11:29:06.128Z,1.62
2023-01-28T11:31:43.018Z,1.95
2023-01-28T11:34:17.431Z,2.13
2023-01-28T11:36:52.460Z,2.05
2023-01-28T11:39:28.583Z,1.94
2023-01-28T11:42:03.124Z,2.16
2023-01-28T11:44:30.445Z,2.19
2023-01-28T11:47:25.124Z,2.18
2023-01-28T11:50:02.061Z,1.93
2023-01-28T11:57:13.377Z,2.33
2023-01-28T12:00:06.684Z,2.38
2023-01-28T12:02:48.860Z,2.02
2023-01-28T12:05:33.970Z,2.17
2023-01-28T12:08:17.182Z,2.70
2023-01-28T12:10:55.935Z,3.21
2023-01-28T12:13:33.948Z,3.69
2023-01-28T12:16:03.442Z,3.46
2023-01-28T12:18:40.408Z,3.26
2023-01-28T12:21:41.513Z,2.48
2023-01-28T12:24:46.730Z,2.40
2023-01-28T12:27:28.153Z,2.01
2023-01-28T12:30:31.520Z,1.87
2023-01-28T12:33:07.364Z,1.62
2023-01-28T12:35:51.179Z,1.50
2023-01-28T12:38:23.676Z,1.29
2023-01-28T12:40:57.673Z,1.57
2023-01-28T12:44:10.222Z,1.92
2023-01-28T12:47:05.960Z,2.35
2023-01-28T12:49:38.472Z,2.65
2023-01-28T12:52:15.945Z,2.68
2023-01-28T12:54:57.910Z,2.50
2023-01-28T12:57:28.552Z,2.49
2023-01-28T13:00:03.857Z,2.26
2023-01-28T13:02:38.168Z,2.04
2023-01-28T13:05:17.286Z,2.00
2023-01-28T13:08:13.776Z,1.85
2023-01-28T13:10:45.533Z,1.90
2023-01-28T13:13:33.600Z,1.89
2023-01-28T13:16:01.820Z,1.59
2023-01-28T13:18:48.673Z,1.42
2023-01-28T13:21:30.588Z,1.46
2023-01-28T13:24:01.822Z,1.29
2023-01-28T13:26:46.613Z,1.00
2023-01-28T13:29:25.420Z,0.89
2023-01-28T13:31:54.888Z,0.83
2023-01-28T13:34:43.689Z,0.65
2023-01-28T13:37:27.356Z,0.74
2023-01-28T13:40:04.223Z,0.96
2023-01-28T13:42:31.708Z,1.15
2023-01-28T13:45:34.066Z,1.05
2023-01-28T13:48:18.815Z,1.02
2023-01-28T13:50:45.856Z,1.01
2023-01-28T13:53:27.639Z,1.04
2023-01-28T13:55:58.494Z,1.10
2023-01-28T13:58:36.359Z,1.17
2023-01-28T14:01:26.205Z,0.88
2023-01-28T14:04:30.460Z,0.39
2023-01-28T14:07:18.930Z,0.35
2023-01-28T14:10:04.289Z,0.32
2023-01-28T14:12:47.139Z,0.35
2023-01-28T14:15:56.603Z,0.25
2023-01-28T14:18:29.210Z,0.15
2023-01-28T14:21:00.571Z,0.20
2023-01-28T14:23:31.070Z,0.11
2023-01-28T14:26:09.891Z,-0.12
2023-01-28T14:28:45.692Z,-0.23
2023-01-28T14:31:22.279Z,-0.24
2023-01-28T14:33:49.067Z,-0.24
2023-01-28T14:36:18.380Z,-0.17
2023-01-28T14:38:46.582Z,-0.21
2023-01-28T14:41:23.696Z,-0.24
2023-01-28T14:43:51.054Z,-0.44
2023-01-28T14:46:30.791Z,-0.46
2023-01-28T14:49:16.309Z,-0.30
2023-01-28T14:51:51.735Z,-0.35
2023-01-28T14:54:50.435Z,-0.33
2023-01-28T14:57:23.125Z,-0.34
2023-01-28T15:00:01.469Z,-0.46
2023-01-28T15:02:30.635Z,-0.45
2023-01-28T15:05:15.329Z,-0.50
2023-01-28T15:07:46.842Z,-0.56
2023-01-28T15:10:25.667Z,-0.57
2023-01-28T15:13:15.332Z,-0.56
2023-01-28T15:15:58.041Z,-0.62
2023-01-28T15:18:42.821Z,-0.57
2023-01-28T15:21:10.230Z,-0.55
2023-01-28T15:23:39.624Z,-0.55
2023-01-28T15:26:46.337Z,-0.57
2023-01-28T15:29:30.623Z,-0.59
2023-01-28T15:31:57.339Z,-0.69
2023-01-28T15:34:32.832Z,-0.79
2023-01-28T15:37:00.704Z,-0.71
2023-01-28T15:39:29.544Z,-0.65
2023-01-28T15:42:03.899Z,-0.63
2023-01-28T15:44:34.558Z,-0.68
2023-01-28T15:47:04.489Z,-0.74
2023-01-28T15:49:45.252Z,-0.73
2023-01-28T15:52:12.675Z,-0.83
2023-01-28T15:54:42.755Z,-0.95
2023-01-28T15:57:20.653Z,-0.97
2023-01-28T15:59:51.072Z,-0.93
2023-01-28T16:02:19.596Z,-0.90
2023-01-28T16:04:57.075Z,-0.96
2023-01-28T16:07:25.850Z,-0.97
2023-01-28T16:09:57.728Z,-1.01
2023-01-28T16:12:26.797Z,-1.04
2023-01-28T16:15:02.387Z,-1.09
2023-01-28T16:17:39.669Z,-1.08
2023-01-28T16:20:09.940Z,-1.01
2023-01-28T16:22:39.923Z,-1.07
2023-01-28T16:25:40.625Z,-1.16
2023-01-28T16:28:19.027Z,-1.16
2023-01-28T16:30:45.719Z,-1.13
2023-01-28T16:33:21.162Z,-1.14
2023-01-28T16:36:05.476Z,-1.07
2023-01-28T16:38:34.159Z,-1.01
2023-01-28T16:41:00.726Z,-0.93
2023-01-28T16:43:27.247Z,-1.05
2023-01-28T16:45:53.827Z,-1.08
2023-01-28T16:48:20.572Z,-1.11
2023-01-28T16:50:47.202Z,-1.12
2023-01-28T16:53:23.763Z,-1.13
2023-01-28T16:55:51.354Z,-1.18
2023-01-28T16:58:23.759Z,-1.20
2023-01-28T17:00:50.380Z,-1.17
2023-01-28T17:03:17.014Z,-1.17
2023-01-28T17:05:43.601Z,-1.21
2023-01-28T17:08:13.096Z,-1.20
2023-01-28T17:10:39.752Z,-1.16
2023-01-28T17:13:06.316Z,-1.23
2023-01-28T17:15:35.372Z,-1.29
2023-01-28T17:18:01.954Z,-1.25
2023-01-28T17:20:28.591Z,-1.25
2023-01-28T17:22:55.201Z,-1.33
2023-01-28T17:25:21.728Z,-1.35
2023-01-28T17:27:49.955Z,-1.30
2023-01-28T17:30:19.643Z,-1.32
2023-01-28T17:32:46.228Z,-1.32
2023-01-28T17:35:12.845Z,-1.29
2023-01-28T17:37:39.443Z,-1.29
2023-01-28T17:40:06.755Z,-1.31
2023-01-28T17:42:33.349Z,-1.25
2023-01-28T17:45:03.108Z,-1.35
2023-01-28T17:47:30.995Z,-1.33
2023-01-28T17:49:57.953Z,-1.40
2023-01-28T17:52:24.617Z,-1.32
2023-01-28T17:54:51.217Z,-1.36
2023-01-28T17:57:18.002Z,-1.36
2023-01-28T17:59:46.952Z,-1.47
2023-01-28T18:02:14.592Z,-1.41
2023-01-28T18:04:42.295Z,-1.35
2023-01-28T18:07:12.816Z,-1.31
2023-01-28T18:09:40.812Z,-1.40
2023-01-28T18:12:09.977Z,-1.37
2023-01-28T18:14:38.245Z,-1.44
2023-01-28T18:17:06.007Z,-1.40
2023-01-28T18:19:32.791Z,-1.46
2023-01-28T18:21:59.487Z,-1.34
2023-01-28T18:24:28.926Z,-1.42
2023-01-28T18:26:59.739Z,-1.39
2023-01-28T18:29:27.843Z,-1.39
2023-01-28T18:31:55.724Z,-1.40
2023-01-28T18:34:24.475Z,-1.46
2023-01-28T18:36:51.190Z,-1.39
2023-01-28T18:39:19.275Z,-1.35
2023-01-28T18:41:46.145Z,-1.34
2023-01-28T18:44:15.758Z,-1.46
2023-01-28T18:46:42.584Z,-1.46
2023-01-28T18:49:09.567Z,-1.51
2023-01-28T18:52:07.899Z,-1.51
2023-01-28T18:54:34.634Z,-1.57
2023-01-28T18:57:01.274Z,-1.53
2023-01-28T18:59:27.847Z,-1.45
2023-01-28T19:01:54.496Z,-1.56
2023-01-28T19:04:21.151Z,-1.54
2023-01-28T19:06:48.155Z,-1.56
2023-01-28T19:09:16.285Z,-1.56
2023-01-28T19:11:44.719Z,-1.67
2023-01-28T19:14:14.098Z,-1.60
2023-01-28T19:16:40.757Z,-1.59
2023-01-28T19:19:07.395Z,-1.59
2023-01-28T19:21:34.243Z,-1.61
2023-01-28T19:24:06.457Z,-1.63
2023-01-28T19:26:33.380Z,-1.63
2023-01-28T19:29:00.047Z,-1.55
2023-01-28T19:31:27.379Z,-1.57
2023-01-28T19:33:59.325Z,-1.61
2023-01-28T19:36:27.193Z,-1.66
2023-01-28T19:38:58.872Z,-1.65
2023-01-28T19:41:26.296Z,-1.63
2023-01-28T19:43:52.899Z,-1.62
2023-01-28T19:46:19.494Z,-1.51
2023-01-28T19:48:46.371Z,-1.52
2023-01-28T19:51:15.011Z,-1.55
2023-01-28T19:53:43.215Z,-1.62
2023-01-28T19:56:14.858Z,-1.65
2023-01-28T19:58:43.409Z,-1.64
2023-01-28T20:01:19.295Z,-1.69
2023-01-28T20:03:46.002Z,-1.69
2023-01-28T20:06:17.347Z,-1.76
2023-01-28T20:08:44.914Z,-1.78
2023-01-28T20:11:14.492Z,-1.79
2023-01-28T20:13:46.096Z,-1.84
2023-01-28T20:16:24.618Z,-1.85
2023-01-28T20:18:59.513Z,-1.83
2023-01-28T20:21:26.828Z,-1.88
2023-01-28T20:23:54.533Z,-1.91
2023-01-28T20:26:24.472Z,-1.87
2023-01-28T20:28:51.578Z,-1.90
2023-01-28T20:31:21.316Z,-2.02
2023-01-28T20:33:48.192Z,-2.09
2023-01-28T20:36:15.110Z,-2.02
2023-01-28T20:38:43.812Z,-1.94
2023-01-28T20:41:15.977Z,-2.05
2023-01-28T20:43:44.160Z,-2.09
2023-01-28T20:46:13.989Z,-2.07
2023-01-28T20:48:41.364Z,-1.98
2023-01-28T20:51:22.352Z,-1.96
2023-01-28T20:53:49.700Z,-1.89
2023-01-28T20:56:19.249Z,-1.83
2023-01-28T20:58:48.144Z,-1.88
2023-01-28T21:01:20.702Z,-1.75
2023-01-28T21:03:48.183Z,-1.93
2023-01-28T21:06:15.333Z,-1.94
2023-01-28T21:08:43.896Z,-1.92
2023-01-28T21:11:11.672Z,-1.84
2023-01-28T21:13:38.466Z,-1.85
2023-01-28T21:16:05.912Z,-1.85
2023-01-28T21:18:32.645Z,-1.84
2023-01-28T21:21:08.111Z,-1.81
2023-01-28T21:23:34.725Z,-1.83
2023-01-28T21:26:03.348Z,-1.82
2023-01-28T21:28:30.169Z,-1.76
2023-01-28T21:31:13.966Z,-1.81
2023-01-28T21:33:40.546Z,-1.78
2023-01-28T21:36:12.749Z,-1.82
2023-01-28T21:38:39.493Z,-1.74
2023-01-28T21:41:07.035Z,-1.75
2023-01-28T21:43:34.269Z,-1.73
2023-01-28T21:46:01.382Z,-1.69
2023-01-28T21:48:28.477Z,-1.63
2023-01-28T21:51:13.805Z,-1.69
2023-01-28T21:53:41.811Z,-1.67
2023-01-28T21:56:09.794Z,-1.64
2023-01-28T21:58:56.541Z,-1.67
2023-01-28T22:01:23.515Z,-1.63
2023-01-28T22:03:50.119Z,-1.69
2023-01-28T22:06:19.273Z,-1.67
2023-01-28T22:08:45.831Z,-1.66
2023-01-28T22:11:12.499Z,-1.64
2023-01-28T22:13:39.455Z,-1.60
2023-01-28T22:16:06.542Z,-1.61
2023-01-28T22:18:33.287Z,-1.58
2023-01-28T22:21:01.484Z,-1.54
2023-01-28T22:23:28.544Z,-1.54
2023-01-28T22:25:56.594Z,-1.52
2023-01-28T22:28:24.375Z,-1.51
2023-01-28T22:30:53.343Z,-1.50
2023-01-28T22:33:20.882Z,-1.50
2023-01-28T22:35:48.328Z,-1.47
2023-01-28T22:38:15.073Z,-1.51
2023-01-28T22:40:41.837Z,-1.64
2023-01-28T22:43:08.434Z,-1.61
2023-01-28T22:45:35.016Z,-1.57
2023-01-28T22:48:01.610Z,-1.57
2023-01-28T22:50:28.175Z,-1.55
2023-01-28T22:52:54.752Z,-1.52
2023-01-28T22:55:21.360Z,-1.61
2023-01-28T22:57:47.984Z,-1.61
2023-01-28T23:00:17.447Z,-1.52
2023-01-28T23:02:44.250Z,-1.51
2023-01-28T23:05:11.284Z,-1.52
2023-01-28T23:07:38.063Z,-1.49
2023-01-28T23:10:05.927Z,-1.51
2023-01-28T23:12:32.510Z,-1.51
2023-01-28T23:15:17.413Z,-1.47
2023-01-28T23:18:02.765Z,-1.43
2023-01-28T23:21:04.677Z,-1.44
2023-01-28T23:23:49.754Z,-1.50
2023-01-28T23:26:16.283Z,-1.45
2023-01-28T23:28:42.860Z,-1.48
2023-01-28T23:31:09.574Z,-1.53
2023-01-28T23:33:36.960Z,-1.58
2023-01-28T23:36:03.703Z,-1.55
2023-01-28T23:38:30.301Z,-1.56
2023-01-28T23:40:56.822Z,-1.53
2023-01-28T23:43:23.387Z,-1.61
2023-01-28T23:45:49.937Z,-1.49
2023-01-28T23:48:16.460Z,-1.44
2023-01-28T23:50:43.019Z,-1.50
2023-01-28T23:53:13.220Z,-1.47
2023-01-28T23:55:40.620Z,-1.55
2023-01-28T23:58:07.373Z,-1.56
